Terminal Aerodrome Forecast
Issued by NWS Albany, NY

Home | Current Version | Previous Version | Text Only | Print | Product List | Glossary On
Versions: 1 2 3 4 5 6 7 8 9 10 11 12 13 14 15 16
000
FTUS41 KALY 041133
TAFALB
TAF
KALB 041133Z 0412/0512 17003KT P6SM VCSH SCT045 OVC080
     FM041300 VRB03KT 6SM -RA SCT030 OVC045
      TEMPO 0414/0418 3SM RA BR OVC030
     FM042000 18005KT P6SM VCSH BKN035 OVC050
     FM050200 17003KT P6SM SCT035 SCT050
     FM050800 00000KT 3SM BR SCT005 SCT080=

USA.gov is the U.S. government's official web portal to all federal, state and local government web resources and services.